Data for 03/01/2014

Time Sea-Level Adjusted Pressure Absolute Pressure Temperature Relative Humidity Dew Point   
(mb) (inHg) (mb) (inHg) (C) (F) (%) (C) (F)
00:05 1014 29.94 844 24.92 -19.9 -3.8 78 -22.8 -9
00:10 1015 29.97 844 24.92 -19.9 -3.8 77 -22.9 -9.2
00:15 1015 29.97 844 24.92 -19.9 -3.9 77 -22.9 -9.3
00:20 1015 29.97 844 24.92 -20 -4 78 -23 -9.3
00:25 1015 29.97 844 24.92 -20 -4.1 76 -23.2 -9.8
00:30 1015 29.97 844 24.92 -20.1 -4.1 77 -23.2 -9.7
00:35 1015 29.97 844 24.92 -20.1 -4.2 76 -23.4 -10.1
00:40 1015 29.97 844 24.92 -20.2 -4.3 75 -23.6 -10.4
00:45 1015 29.97 844 24.92 -20.2 -4.4 73 -23.8 -10.9
00:50 1015 29.97 844 24.92 -20.3 -4.5 76 -23.5 -10.2
00:55 1015 29.97 844 24.92 -20.3 -4.6 76 -23.6 -10.4
01:00 1015 29.97 844 24.92 -20.4 -4.6 75 -23.7 -10.7
01:05 1015 29.97 844 24.92 -20.4 -4.7 75 -23.8 -10.8
01:10 1015 29.97 844 24.92 -20.4 -4.7 75 -23.8 -10.9
01:15 1015 29.97 844 24.92 -20.4 -4.7 74 -24 -11.2
01:20 1015 29.97 844 24.92 -20.5 -4.8 74 -24 -11.2
01:25 1015 29.97 844 24.92 -20.6 -5 73 -24.3 -11.7
01:30 1015 29.97 844 24.92 -20.6 -5 71 -24.5 -12
01:35 1015 29.97 844 24.92 -20.6 -5 73 -24.2 -11.5
01:40 1015 29.97 844 24.92 -20.7 -5.2 74 -24.1 -11.4
01:45 1015 29.97 844 24.92 -20.7 -5.3 73 -24.4 -11.9
01:50 1015 29.97 844 24.92 -20.8 -5.4 72 -24.5 -12.2
01:55 1015 29.97 844 24.92 -20.8 -5.5 72 -24.6 -12.2
02:00 1015 29.97 844 24.92 -20.9 -5.6 73 -24.5 -12
02:05 1015 29.97 844 24.92 -20.9 -5.7 73 -24.6 -12.4
02:10 1015 29.97 844 24.92 -20.9 -5.6 70 -25 -13
02:15 1015 29.97 844 24.92 -21 -5.7 70 -25.1 -13.1
02:20 1015 29.97 844 24.92 -21 -5.8 72 -24.8 -12.6
02:25 1015 29.97 844 24.92 -21.1 -6 73 -24.8 -12.7
02:30 1015 29.97 844 24.92 -21.2 -6.2 73 -24.9 -12.8
02:35 1015 29.97 844 24.92 -21.3 -6.3 73 -25 -13
02:40 1014 29.94 844 24.92 -21.4 -6.4 73 -25 -13.1
02:45 1014 29.94 844 24.92 -21.4 -6.6 71 -25.3 -13.6
02:50 1014 29.94 844 24.92 -21.4 -6.6 71 -25.4 -13.8
02:55 1014 29.94 843 24.89 -21.5 -6.7 67 -26.1 -14.9
03:00 1014 29.94 843 24.89 -21.5 -6.7 68 -25.9 -14.6
03:05 1014 29.94 844 24.92 -21.6 -6.8 68 -26 -14.9
03:10 1015 29.97 844 24.92 -21.6 -6.9 67 -26.2 -15.2
03:15 1015 29.97 844 24.92 -21.7 -7 67 -26.2 -15.2
03:20 1015 29.97 844 24.92 -21.7 -7.1 65 -26.6 -15.9
03:25 1015 29.97 844 24.92 -21.8 -7.2 66 -26.5 -15.7
03:30 1015 29.97 844 24.92 -21.8 -7.3 64 -26.9 -16.5
03:35 1015 29.97 844 24.92 -21.9 -7.3 64 -26.9 -16.4
03:40 1015 29.97 844 24.92 -21.9 -7.4 65 -26.8 -16.2
03:45 1015 29.97 844 24.92 -21.9 -7.4 64 -27.1 -16.7
03:50 1015 29.97 844 24.92 -21.9 -7.5 64 -27 -16.5
03:55 1015 29.97 844 24.92 -21.9 -7.4 63 -27.2 -17
04:00 1015 29.97 844 24.92 -22 -7.5 64 -27.1 -16.8
04:05 1015 29.97 844 24.92 -22 -7.6 66 -26.7 -16.1
04:10 1015 29.97 844 24.92 -22 -7.7 66 -26.8 -16.2
04:15 1015 29.97 844 24.92 -22.1 -7.8 68 -26.5 -15.7
04:20 1015 29.97 844 24.92 -22.2 -7.9 69 -26.4 -15.4
04:25 1015 29.97 844 24.92 -22.2 -8 69 -26.4 -15.6
04:30 1015 29.97 844 24.92 -22.3 -8.1 70 -26.4 -15.5
04:35 1015 29.97 844 24.92 -22.3 -8.2 70 -26.4 -15.6
04:40 1015 29.97 844 24.92 -22.3 -8.2 70 -26.4 -15.5
04:45 1015 29.97 844 24.92 -22.4 -8.3 70 -26.5 -15.8
04:50 1015 29.97 844 24.92 -22.4 -8.4 69 -26.6 -15.9
04:55 1014 29.94 844 24.92 -22.5 -8.4 69 -26.7 -16.1
05:00 1014 29.94 844 24.92 -22.5 -8.5 69 -26.8 -16.2
05:05 1015 29.97 844 24.92 -22.5 -8.5 67 -27.1 -16.8
05:10 1015 29.97 844 24.92 -22.5 -8.5 66 -27.2 -17
05:15 1015 29.97 844 24.92 -22.5 -8.5 65 -27.4 -17.3
05:20 1015 29.97 844 24.92 -22.5 -8.5 66 -27.2 -17
05:25 1014 29.94 844 24.92 -22.6 -8.6 67 -27.1 -16.8
05:30 1015 29.97 844 24.92 -22.6 -8.7 67 -27.1 -16.7
05:35 1015 29.97 844 24.92 -22.6 -8.7 66 -27.4 -17.3
05:40 1014 29.94 844 24.92 -22.6 -8.6 67 -27.2 -16.9
05:45 1014 29.94 844 24.92 -22.6 -8.7 65 -27.6 -17.6
05:50 1014 29.94 844 24.92 -22.6 -8.7 66 -27.4 -17.3
05:55 1014 29.94 843 24.89 -22.6 -8.7 64 -27.7 -17.8
06:00 1014 29.94 843 24.89 -22.6 -8.6 64 -27.7 -17.8
06:05 1014 29.94 843 24.89 -22.6 -8.6 64 -27.6 -17.7
06:10 1014 29.94 843 24.89 -22.6 -8.6 64 -27.7 -17.9
06:15 1014 29.94 843 24.89 -22.6 -8.6 64 -27.6 -17.7
06:20 1014 29.94 843 24.89 -22.6 -8.7 64 -27.6 -17.7
06:25 1014 29.94 844 24.92 -22.6 -8.6 65 -27.4 -17.4
06:30 1014 29.94 844 24.92 -22.6 -8.6 64 -27.6 -17.6
06:35 1014 29.94 844 24.92 -22.6 -8.7 64 -27.7 -17.9
06:40 1014 29.94 843 24.89 -22.6 -8.8 65 -27.6 -17.6
06:45 1014 29.94 843 24.89 -22.7 -8.8 64 -27.6 -17.7
06:50 1014 29.94 844 24.92 -22.7 -8.8 64 -27.7 -17.8
06:55 1014 29.94 843 24.89 -22.7 -8.8 65 -27.5 -17.5
07:00 1014 29.94 843 24.89 -22.7 -8.9 66 -27.5 -17.4
07:05 1014 29.94 843 24.89 -22.8 -9 67 -27.3 -17.1
07:10 1014 29.94 843 24.89 -22.8 -9 66 -27.5 -17.5
07:15 1014 29.94 843 24.89 -22.8 -9 66 -27.5 -17.6
07:20 1014 29.94 843 24.89 -22.8 -9.1 66 -27.5 -17.5
07:25 1014 29.94 843 24.89 -22.8 -9 65 -27.7 -17.9
07:30 1014 29.94 843 24.89 -22.8 -9.1 65 -27.8 -18
07:35 1014 29.94 843 24.89 -22.9 -9.1 66 -27.5 -17.5
07:40 1014 29.94 843 24.89 -22.9 -9.2 67 -27.5 -17.4
07:45 1014 29.94 843 24.89 -22.9 -9.2 67 -27.4 -17.3
07:50 1014 29.94 843 24.89 -22.9 -9.2 69 -27.1 -16.8
07:55 1014 29.94 844 24.92 -22.9 -9.3 68 -27.3 -17.1
08:00 1014 29.94 844 24.92 -22.9 -9.2 67 -27.4 -17.3
08:05 1014 29.94 844 24.92 -22.9 -9.2 66 -27.5 -17.6
08:10 1014 29.94 844 24.92 -23 -9.4 67 -27.6 -17.6
08:15 1014 29.94 844 24.92 -23 -9.4 66 -27.7 -17.8
08:20 1014 29.94 843 24.89 -23 -9.5 66 -27.8 -18
08:25 1014 29.94 843 24.89 -23.1 -9.5 66 -27.8 -18.1
08:30 1014 29.94 844 24.92 -23.1 -9.5 65 -27.9 -18.2
08:35 1014 29.94 843 24.89 -23.1 -9.5 65 -28 -18.4
08:40 1014 29.94 844 24.92 -23.1 -9.6 65 -28 -18.4
08:45 1014 29.94 844 24.92 -23.1 -9.5 65 -27.9 -18.2
08:50 1014 29.94 844 24.92 -23.1 -9.5 62 -28.4 -19.1
08:55 1014 29.94 844 24.92 -23.1 -9.5 63 -28.3 -18.9
09:00 1014 29.94 844 24.92 -23.1 -9.6 64 -28.2 -18.8
09:05 1014 29.94 844 24.92 -23.2 -9.7 64 -28.2 -18.8
09:10 1015 29.97 844 24.92 -23.2 -9.8 64 -28.2 -18.8
09:15 1015 29.97 844 24.92 -23.2 -9.8 66 -28 -18.3
09:20 1015 29.97 844 24.92 -23.2 -9.8 65 -28 -18.5
09:25 1015 29.97 844 24.92 -23.3 -10 65 -28.2 -18.8
09:30 1015 29.97 844 24.92 -23.4 -10.1 66 -28.1 -18.6
09:35 1015 29.97 844 24.92 -23.4 -10.2 67 -28 -18.4
09:40 1015 29.97 844 24.92 -23.5 -10.3 66 -28.2 -18.8
09:45 1015 29.97 844 24.92 -23.6 -10.4 68 -27.9 -18.3
09:50 1015 29.97 844 24.92 -23.6 -10.5 68 -27.9 -18.2
09:55 1015 29.97 844 24.92 -23.6 -10.5 67 -28.2 -18.8
10:00 1015 29.97 844 24.92 -23.6 -10.6 68 -27.9 -18.3
10:05 1015 29.97 844 24.92 -23.6 -10.5 69 -27.9 -18.2
10:10 1015 29.97 844 24.92 -23.7 -10.6 67 -28.3 -18.9
10:15 1015 29.97 844 24.92 -23.7 -10.7 68 -28.2 -18.7
10:20 1015 29.97 844 24.92 -23.7 -10.7 66 -28.4 -19.1
10:25 1015 29.97 844 24.92 -23.7 -10.7 67 -28.2 -18.7
10:30 1015 29.97 844 24.92 -23.7 -10.7 65 -28.5 -19.3
10:35 1015 29.97 844 24.92 -23.8 -10.8 66 -28.5 -19.2
10:40 1015 29.97 844 24.92 -23.8 -10.9 68 -28.3 -18.9
10:45 1015 29.97 844 24.92 -23.8 -10.8 66 -28.5 -19.2
10:50 1015 29.97 844 24.92 -23.8 -10.9 63 -29 -20.2
10:55 1015 29.97 844 24.92 -23.9 -11 66 -28.6 -19.5
11:00 1015 29.97 844 24.92 -23.9 -11.1 64 -28.9 -20
11:05 1015 29.97 844 24.92 -24 -11.2 65 -28.8 -19.8
11:10 1015 29.97 844 24.92 -24 -11.2 64 -29.1 -20.3
11:15 1015 29.97 844 24.92 -24 -11.2 63 -29.1 -20.4
11:20 1015 29.97 845 24.95 -24.1 -11.4 65 -28.9 -20.1
11:25 1015 29.97 845 24.95 -24.1 -11.4 65 -28.9 -20
11:30 1015 29.97 845 24.95 -24.2 -11.6 66 -28.9 -20.1
11:35 1015 29.97 845 24.95 -24.2 -11.6 67 -28.7 -19.6
11:40 1016 30 845 24.95 -24.2 -11.6 68 -28.6 -19.4
11:45 1016 30 845 24.95 -24.4 -11.9 69 -28.6 -19.5
11:50 1016 30 845 24.95 -24.5 -12 69 -28.6 -19.4
11:55 1016 30 845 24.95 -24.4 -11.9 66 -29 -20.2
12:00 1016 30 845 24.95 -24.4 -11.9 65 -29.2 -20.5
12:05 1016 30 845 24.95 -24.4 -11.9 66 -29.1 -20.3
12:10 1016 30 845 24.95 -24.5 -12 65 -29.3 -20.7
12:15 1016 30 845 24.95 -24.5 -12 64 -29.4 -20.9
12:20 1016 30 845 24.95 -24.6 -12.3 66 -29.2 -20.6
12:25 1016 30 845 24.95 -24.5 -12.2 66 -29.3 -20.7
12:30 1016 30 845 24.95 -24.5 -12.2 64 -29.5 -21
12:35 1016 30 845 24.95 -24.6 -12.2 65 -29.4 -20.9
12:40 1016 30 845 24.95 -24.6 -12.3 65 -29.5 -21
12:45 1016 30 845 24.95 -24.6 -12.3 64 -29.6 -21.2
12:50 1016 30 845 24.95 -24.6 -12.3 64 -29.5 -21.2
12:55 1016 30 845 24.95 -24.6 -12.2 64 -29.5 -21.2
13:00 1016 30 845 24.95 -24.4 -12 62 -29.7 -21.5
13:05 1016 30 845 24.95 -24.3 -11.8 62 -29.7 -21.5
13:10 1016 30 845 24.95 -24.3 -11.7 61 -29.7 -21.5
13:15 1016 30 845 24.95 -24.4 -11.9 62 -29.7 -21.4
13:20 1016 30 845 24.95 -24.2 -11.6 62 -29.5 -21.1
13:25 1015 29.97 845 24.95 -24.1 -11.4 60 -29.8 -21.7
13:30 1015 29.97 845 24.95 -23.9 -11 57 -30.3 -22.5
13:35 1016 30 845 24.95 -23.9 -11.1 57 -30.3 -22.5
13:40 1016 30 845 24.95 -23.9 -10.9 56 -30.4 -22.7
13:45 1015 29.97 845 24.95 -24 -11.2 55 -30.7 -23.3
13:50 1015 29.97 845 24.95 -24.2 -11.5 55 -30.9 -23.6
13:55 1015 29.97 845 24.95 -24 -11.2 55 -30.7 -23.3
14:00 1015 29.97 845 24.95 -24.1 -11.3 54 -30.9 -23.6
14:05 1015 29.97 844 24.92 -24.2 -11.5 54 -31 -23.7
14:10 1015 29.97 845 24.95 -23.9 -11.1 55 -30.6 -23.2
14:15 1015 29.97 844 24.92 -23.8 -10.9 56 -30.3 -22.6
14:20 1015 29.97 844 24.92 -23.7 -10.6 52 -30.9 -23.7
14:25 1015 29.97 844 24.92 -24 -11.2 55 -30.7 -23.2
14:30 1015 29.97 845 24.95 -23.8 -10.9 56 -30.3 -22.5
14:35 1015 29.97 845 24.95 -23.8 -10.8 54 -30.6 -23.1
14:40 1015 29.97 844 24.92 -23.8 -10.8 55 -30.5 -23
14:45 1015 29.97 844 24.92 -23.8 -10.9 56 -30.3 -22.6
14:50 1015 29.97 844 24.92 -23.6 -10.5 56 -30.1 -22.2
14:55 1015 29.97 844 24.92 -23.6 -10.5 56 -30.2 -22.3
15:00 1015 29.97 844 24.92 -23.6 -10.4 56 -30.1 -22.2
15:05 1015 29.97 845 24.95 -23.5 -10.3 55 -30.2 -22.4
15:10 1015 29.97 845 24.95 -23.4 -10.2 55 -30.2 -22.3
15:15 1015 29.97 844 24.92 -23.4 -10 56 -29.9 -21.8
15:20 1015 29.97 845 24.95 -23.3 -9.9 55 -30 -22
15:25 1015 29.97 845 24.95 -23.4 -10 54 -30.2 -22.3
15:30 1015 29.97 844 24.92 -23.3 -9.9 56 -29.7 -21.5
15:35 1015 29.97 845 24.95 -23.2 -9.7 55 -30 -22
15:40 1015 29.97 845 24.95 -23.2 -9.8 53 -30.2 -22.4
15:45 1015 29.97 845 24.95 -23.2 -9.7 55 -29.8 -21.7
15:50 1015 29.97 845 24.95 -23 -9.4 55 -29.8 -21.6
15:55 1016 30 845 24.95 -23.3 -9.9 55 -29.9 -21.8
16:00 1016 30 845 24.95 -23.1 -9.6 54 -30 -22
16:05 1016 30 845 24.95 -23.1 -9.5 55 -29.9 -21.8
16:10 1016 30 845 24.95 -23.2 -9.7 56 -29.7 -21.5
16:15 1016 30 845 24.95 -23.1 -9.6 54 -30 -22
16:20 1016 30 845 24.95 -23.2 -9.7 53 -30.3 -22.6
16:25 1016 30 845 24.95 -23.2 -9.7 55 -29.9 -21.8
16:30 1016 30 845 24.95 -23.4 -10 54 -30.4 -22.6
16:35 1016 30 845 24.95 -23.5 -10.3 55 -30.3 -22.5
16:40 1016 30 845 24.95 -23.4 -10.1 55 -30.2 -22.3
16:45 1016 30 845 24.95 -23.4 -10.1 55 -30.1 -22.2
16:50 1016 30 845 24.95 -23.2 -9.8 55 -30 -21.9
16:55 1016 30 845 24.95 -23.2 -9.7 53 -30.2 -22.4
17:00 1016 30 845 24.95 -23.2 -9.7 55 -29.9 -21.9
17:05 1016 30 845 24.95 -23.2 -9.8 53 -30.3 -22.6
17:10 1016 30 845 24.95 -23.3 -10 56 -29.7 -21.5
17:15 1016 30 845 24.95 -23.2 -9.8 56 -29.8 -21.6
17:20 1016 30 845 24.95 -23.4 -10.1 56 -29.8 -21.6
17:25 1016 30 845 24.95 -23.4 -10.1 55 -30 -22
17:30 1016 30 845 24.95 -23.5 -10.2 56 -30 -22
17:35 1016 30 845 24.95 -23.6 -10.5 58 -29.8 -21.6
17:40 1016 30 845 24.95 -23.7 -10.7 59 -29.7 -21.4
17:45 1016 30 845 24.95 -23.9 -11 59 -29.7 -21.5
17:50 1016 30 845 24.95 -23.8 -10.9 60 -29.6 -21.2
17:55 1016 30 845 24.95 -23.9 -11 59 -29.9 -21.7
18:00 1016 30 845 24.95 -24.1 -11.3 61 -29.6 -21.4
18:05 1016 30 845 24.95 -24.1 -11.3 61 -29.7 -21.4
18:10 1016 30 845 24.95 -24.1 -11.3 60 -29.7 -21.5
18:15 1016 30 845 24.95 -24.3 -11.7 61 -29.7 -21.5
18:20 1016 30 845 24.95 -24.2 -11.6 62 -29.6 -21.3
18:25 1016 30 845 24.95 -24.1 -11.5 61 -29.6 -21.3
18:30 1016 30 845 24.95 -24.3 -11.7 60 -30 -22
18:35 1016 30 845 24.95 -24.3 -11.7 60 -30 -21.9
18:40 1016 30 845 24.95 -24.3 -11.8 61 -29.9 -21.8
18:45 1016 30 845 24.95 -24.4 -11.8 61 -29.9 -21.7
18:50 1016 30 845 24.95 -24.3 -11.8 60 -30 -22
18:55 1016 30 845 24.95 -24.3 -11.8 59 -30.2 -22.3
19:00 1016 30 845 24.95 -24.3 -11.8 60 -30.1 -22.2
19:05 1016 30 845 24.95 -24.4 -11.9 60 -30.2 -22.3
19:10 1016 30 845 24.95 -24.5 -12 60 -30.2 -22.4
19:15 1016 30 845 24.95 -24.4 -11.9 59 -30.2 -22.4
19:20 1016 30 845 24.95 -24.4 -11.8 59 -30.2 -22.4
19:25 1016 30 845 24.95 -24.3 -11.7 60 -30 -22.1
19:30 1016 30 845 24.95 -24.2 -11.5 58 -30.2 -22.3
19:35 1016 30 845 24.95 -24.1 -11.3 59 -30.1 -22.1
19:40 1016 30 845 24.95 -24.1 -11.3 59 -29.9 -21.8
19:45 1016 30 845 24.95 -24.1 -11.3 60 -29.9 -21.8
19:50 1016 30 845 24.95 -24 -11.3 60 -29.7 -21.5
19:55 1016 30 845 24.95 -24 -11.2 60 -29.7 -21.5
20:00 1016 30 845 24.95 -24.1 -11.3 60 -29.8 -21.7
20:05 1016 30 845 24.95 -24.3 -11.7 60 -29.9 -21.9
20:10 1016 30 845 24.95 -24.3 -11.8 60 -29.9 -21.9
20:15 1016 30 845 24.95 -24.3 -11.8 61 -29.9 -21.9
20:20 1016 30 845 24.95 -24.4 -12 61 -30 -21.9
20:25 1016 30 845 24.95 -24.4 -11.9 61 -29.9 -21.8
20:30 1016 30 845 24.95 -24.2 -11.6 61 -29.7 -21.5
20:35 1016 30 845 24.95 -24.2 -11.5 61 -29.8 -21.6
20:40 1016 30 845 24.95 -24.2 -11.5 61 -29.8 -21.6
20:45 1016 30 846 24.98 -24.1 -11.4 61 -29.6 -21.3
20:50 1017 30.03 846 24.98 -24 -11.1 60 -29.7 -21.4
20:55 1017 30.03 846 24.98 -24 -11.2 61 -29.6 -21.4
21:00 1017 30.03 846 24.98 -24 -11.2 60 -29.7 -21.4
21:05 1016 30 846 24.98 -24.1 -11.3 61 -29.7 -21.4
21:10 1017 30.03 846 24.98 -24.1 -11.4 61 -29.6 -21.2
21:15 1017 30.03 846 24.98 -24 -11.3 60 -29.7 -21.5
21:20 1016 30 846 24.98 -24.2 -11.5 62 -29.5 -21.1
21:25 1016 30 846 24.98 -24.2 -11.5 62 -29.6 -21.2
21:30 1016 30 845 24.95 -24.2 -11.5 62 -29.6 -21.2
21:35 1016 30 846 24.98 -24.1 -11.3 61 -29.7 -21.4
21:40 1016 30 846 24.98 -24.1 -11.4 61 -29.6 -21.3
21:45 1017 30.03 846 24.98 -24.2 -11.6 61 -29.7 -21.5
21:50 1017 30.03 846 24.98 -24.2 -11.6 62 -29.6 -21.3
21:55 1017 30.03 846 24.98 -24.2 -11.5 61 -29.7 -21.5
22:00 1017 30.03 846 24.98 -24.3 -11.8 62 -29.7 -21.5
22:05 1017 30.03 846 24.98 -24.2 -11.5 61 -29.7 -21.4
22:10 1016 30 846 24.98 -24.3 -11.8 61 -29.9 -21.9
22:15 1017 30.03 846 24.98 -24.6 -12.3 62 -30 -22.1
22:20 1017 30.03 846 24.98 -24.6 -12.4 62 -30 -22
22:25 1017 30.03 846 24.98 -24.6 -12.3 62 -30 -21.9
22:30 1017 30.03 846 24.98 -24.6 -12.2 62 -29.9 -21.8
22:35 1017 30.03 846 24.98 -24.5 -12.1 62 -29.8 -21.7
22:40 1017 30.03 846 24.98 -24.4 -11.9 61 -30 -22
22:45 1017 30.03 846 24.98 -24.5 -12.1 61 -30 -22
22:50 1017 30.03 846 24.98 -24.6 -12.3 62 -30 -22
22:55 1017 30.03 846 24.98 -24.6 -12.2 62 -29.9 -21.9
23:00 1017 30.03 846 24.98 -24.5 -12 62 -29.8 -21.7
23:05 1017 30.03 846 24.98 -24.5 -12 62 -29.8 -21.6
23:10 1017 30.03 846 24.98 -24.6 -12.2 62 -29.9 -21.8
23:15 1017 30.03 846 24.98 -24.5 -12.2 62 -29.8 -21.7
23:20 1017 30.03 846 24.98 -24.5 -12 62 -29.8 -21.6
23:25 1017 30.03 846 24.98 -24.5 -12.1 62 -29.8 -21.7
23:30 1017 30.03 846 24.98 -24.5 -12.1 62 -29.8 -21.7
23:35 1017 30.03 846 24.98 -24.6 -12.2 63 -29.7 -21.5
23:40 1017 30.03 846 24.98 -24.6 -12.3 61 -30 -22
23:45 1017 30.03 846 24.98 -24.7 -12.4 62 -30.1 -22.2
23:50 1017 30.03 846 24.98 -24.7 -12.5 62 -30.1 -22.2
23:55 1017 30.03 846 24.98 -24.8 -12.6 62 -30.1 -22.2
24:00 1017 30.03 846 24.98 -24.8 -12.7 62 -30.1 -22.3